sensor_id;sensor_type;location;lat;lon;timestamp;P1;durP1;ratioP1;P2;durP2;ratioP2
78443;SDS011;67739;52.986;8.894;2023-09-12T00:00:36;17.15;;;9.45;;
78443;SDS011;67739;52.986;8.894;2023-09-12T00:03:01;16.73;;;10.60;;
78443;SDS011;67739;52.986;8.894;2023-09-12T00:05:27;18.85;;;10.60;;
78443;SDS011;67739;52.986;8.894;2023-09-12T00:07:52;18.52;;;10.60;;
78443;SDS011;67739;52.986;8.894;2023-09-12T00:10:20;21.83;;;11.15;;
78443;SDS011;67739;52.986;8.894;2023-09-12T00:12:45;19.67;;;11.52;;
78443;SDS011;67739;52.986;8.894;2023-09-12T00:15:11;21.80;;;11.07;;
78443;SDS011;67739;52.986;8.894;2023-09-12T00:17:37;20.77;;;10.48;;
78443;SDS011;67739;52.986;8.894;2023-09-12T00:20:03;20.33;;;10.63;;
78443;SDS011;67739;52.986;8.894;2023-09-12T00:22:31;19.02;;;10.20;;
78443;SDS011;67739;52.986;8.894;2023-09-12T00:24:56;19.92;;;10.77;;
78443;SDS011;67739;52.986;8.894;2023-09-12T00:27:22;18.55;;;11.10;;
78443;SDS011;67739;52.986;8.894;2023-09-12T00:29:47;22.50;;;13.02;;
78443;SDS011;67739;52.986;8.894;2023-09-12T00:32:12;23.23;;;12.35;;
78443;SDS011;67739;52.986;8.894;2023-09-12T00:34:37;22.17;;;11.63;;
78443;SDS011;67739;52.986;8.894;2023-09-12T00:37:04;24.73;;;12.75;;
78443;SDS011;67739;52.986;8.894;2023-09-12T00:39:29;24.13;;;12.05;;
78443;SDS011;67739;52.986;8.894;2023-09-12T00:41:55;23.17;;;11.73;;
78443;SDS011;67739;52.986;8.894;2023-09-12T00:44:20;22.00;;;10.73;;
78443;SDS011;67739;52.986;8.894;2023-09-12T00:46:46;21.50;;;11.30;;
78443;SDS011;67739;52.986;8.894;2023-09-12T00:49:14;24.08;;;13.45;;
78443;SDS011;67739;52.986;8.894;2023-09-12T00:51:41;22.27;;;12.32;;
78443;SDS011;67739;52.986;8.894;2023-09-12T00:54:08;25.95;;;12.90;;
78443;SDS011;67739;52.986;8.894;2023-09-12T00:56:34;21.30;;;13.70;;
78443;SDS011;67739;52.986;8.894;2023-09-12T00:59:00;28.05;;;13.85;;
78443;SDS011;67739;52.986;8.894;2023-09-12T01:01:26;22.02;;;12.57;;
78443;SDS011;67739;52.986;8.894;2023-09-12T01:03:51;26.67;;;13.25;;
78443;SDS011;67739;52.986;8.894;2023-09-12T01:06:19;25.33;;;14.00;;
78443;SDS011;67739;52.986;8.894;2023-09-12T01:11:14;22.38;;;12.88;;
78443;SDS011;67739;52.986;8.894;2023-09-12T01:13:40;22.05;;;12.68;;
78443;SDS011;67739;52.986;8.894;2023-09-12T01:16:05;19.15;;;10.80;;
78443;SDS011;67739;52.986;8.894;2023-09-12T01:18:31;21.02;;;11.60;;
78443;SDS011;67739;52.986;8.894;2023-09-12T01:23:56;23.55;;;13.15;;
78443;SDS011;67739;52.986;8.894;2023-09-12T01:29:04;23.20;;;12.60;;
78443;SDS011;67739;52.986;8.894;2023-09-12T01:31:32;23.30;;;13.10;;
78443;SDS011;67739;52.986;8.894;2023-09-12T01:34:10;23.38;;;12.48;;
78443;SDS011;67739;52.986;8.894;2023-09-12T01:36:36;27.48;;;14.25;;
78443;SDS011;67739;52.986;8.894;2023-09-12T01:39:02;23.42;;;12.85;;
78443;SDS011;67739;52.986;8.894;2023-09-12T01:41:27;26.45;;;14.02;;
78443;SDS011;67739;52.986;8.894;2023-09-12T01:43:55;23.45;;;12.98;;
78443;SDS011;67739;52.986;8.894;2023-09-12T01:46:22;22.55;;;12.35;;
78443;SDS011;67739;52.986;8.894;2023-09-12T01:48:49;26.80;;;12.25;;
78443;SDS011;67739;52.986;8.894;2023-09-12T01:51:17;20.85;;;11.35;;
78443;SDS011;67739;52.986;8.894;2023-09-12T01:53:44;22.33;;;12.45;;
78443;SDS011;67739;52.986;8.894;2023-09-12T01:56:11;22.67;;;11.85;;
78443;SDS011;67739;52.986;8.894;2023-09-12T01:58:37;26.13;;;13.95;;
78443;SDS011;67739;52.986;8.894;2023-09-12T02:01:03;25.25;;;13.93;;
78443;SDS011;67739;52.986;8.894;2023-09-12T02:03:29;26.77;;;13.18;;
78443;SDS011;67739;52.986;8.894;2023-09-12T02:05:54;25.85;;;12.93;;
78443;SDS011;67739;52.986;8.894;2023-09-12T02:08:19;25.75;;;13.10;;
78443;SDS011;67739;52.986;8.894;2023-09-12T02:10:45;23.75;;;13.27;;
78443;SDS011;67739;52.986;8.894;2023-09-12T02:13:10;27.02;;;13.23;;
78443;SDS011;67739;52.986;8.894;2023-09-12T02:15:35;22.73;;;11.88;;
78443;SDS011;67739;52.986;8.894;2023-09-12T02:18:00;24.70;;;11.55;;
78443;SDS011;67739;52.986;8.894;2023-09-12T02:20:26;23.40;;;12.65;;
78443;SDS011;67739;52.986;8.894;2023-09-12T02:22:51;25.98;;;12.90;;
78443;SDS011;67739;52.986;8.894;2023-09-12T02:25:16;24.58;;;12.45;;
78443;SDS011;67739;52.986;8.894;2023-09-12T02:27:45;22.65;;;13.13;;
78443;SDS011;67739;52.986;8.894;2023-09-12T02:30:10;24.67;;;11.68;;
78443;SDS011;67739;52.986;8.894;2023-09-12T02:32:35;22.15;;;12.35;;
78443;SDS011;67739;52.986;8.894;2023-09-12T02:35:01;20.45;;;11.52;;
78443;SDS011;67739;52.986;8.894;2023-09-12T02:37:27;26.10;;;13.57;;
78443;SDS011;67739;52.986;8.894;2023-09-12T02:39:52;23.58;;;12.55;;
78443;SDS011;67739;52.986;8.894;2023-09-12T02:42:18;20.92;;;11.18;;
78443;SDS011;67739;52.986;8.894;2023-09-12T02:44:43;23.35;;;11.77;;
78443;SDS011;67739;52.986;8.894;2023-09-12T02:47:08;22.65;;;11.32;;
78443;SDS011;67739;52.986;8.894;2023-09-12T02:49:34;23.30;;;11.95;;
78443;SDS011;67739;52.986;8.894;2023-09-12T02:51:59;24.92;;;12.02;;
78443;SDS011;67739;52.986;8.894;2023-09-12T02:54:24;23.77;;;12.70;;
78443;SDS011;67739;52.986;8.894;2023-09-12T02:56:49;23.67;;;12.18;;
78443;SDS011;67739;52.986;8.894;2023-09-12T02:59:15;24.70;;;12.05;;
78443;SDS011;67739;52.986;8.894;2023-09-12T03:01:40;23.45;;;12.25;;
78443;SDS011;67739;52.986;8.894;2023-09-12T03:04:05;19.35;;;10.00;;
78443;SDS011;67739;52.986;8.894;2023-09-12T03:06:31;21.63;;;10.88;;
78443;SDS011;67739;52.986;8.894;2023-09-12T03:08:56;26.33;;;12.80;;
78443;SDS011;67739;52.986;8.894;2023-09-12T03:11:22;21.42;;;11.38;;
78443;SDS011;67739;52.986;8.894;2023-09-12T03:13:47;24.35;;;13.27;;
78443;SDS011;67739;52.986;8.894;2023-09-12T03:16:13;22.23;;;11.15;;
78443;SDS011;67739;52.986;8.894;2023-09-12T03:18:39;22.55;;;11.77;;
78443;SDS011;67739;52.986;8.894;2023-09-12T03:21:05;23.70;;;12.27;;
78443;SDS011;67739;52.986;8.894;2023-09-12T03:23:31;20.58;;;11.30;;
78443;SDS011;67739;52.986;8.894;2023-09-12T03:26:03;19.95;;;10.65;;
78443;SDS011;67739;52.986;8.894;2023-09-12T03:28:29;22.55;;;10.93;;
78443;SDS011;67739;52.986;8.894;2023-09-12T03:31:08;23.35;;;11.60;;
78443;SDS011;67739;52.986;8.894;2023-09-12T03:33:37;20.48;;;11.70;;
78443;SDS011;67739;52.986;8.894;2023-09-12T03:36:02;22.27;;;12.30;;
78443;SDS011;67739;52.986;8.894;2023-09-12T03:38:28;22.58;;;11.43;;
78443;SDS011;67739;52.986;8.894;2023-09-12T03:40:53;21.27;;;10.85;;
78443;SDS011;67739;52.986;8.894;2023-09-12T03:43:19;25.15;;;11.32;;
78443;SDS011;67739;52.986;8.894;2023-09-12T03:45:44;20.40;;;11.25;;
78443;SDS011;67739;52.986;8.894;2023-09-12T03:48:09;19.85;;;11.45;;
78443;SDS011;67739;52.986;8.894;2023-09-12T03:50:35;19.08;;;11.80;;
78443;SDS011;67739;52.986;8.894;2023-09-12T03:53:00;22.45;;;13.32;;
78443;SDS011;67739;52.986;8.894;2023-09-12T03:55:25;19.73;;;10.07;;
78443;SDS011;67739;52.986;8.894;2023-09-12T03:57:51;23.30;;;11.55;;
78443;SDS011;67739;52.986;8.894;2023-09-12T04:00:16;20.13;;;10.57;;
78443;SDS011;67739;52.986;8.894;2023-09-12T04:02:41;19.17;;;11.35;;
78443;SDS011;67739;52.986;8.894;2023-09-12T04:05:07;18.30;;;9.57;;
78443;SDS011;67739;52.986;8.894;2023-09-12T04:07:32;20.35;;;11.40;;
78443;SDS011;67739;52.986;8.894;2023-09-12T04:09:57;23.10;;;13.00;;
78443;SDS011;67739;52.986;8.894;2023-09-12T04:12:23;20.52;;;11.27;;
78443;SDS011;67739;52.986;8.894;2023-09-12T04:14:52;22.00;;;11.65;;
78443;SDS011;67739;52.986;8.894;2023-09-12T04:17:17;20.23;;;11.88;;
78443;SDS011;67739;52.986;8.894;2023-09-12T04:19:43;19.45;;;10.60;;
78443;SDS011;67739;52.986;8.894;2023-09-12T04:22:08;19.55;;;12.65;;
78443;SDS011;67739;52.986;8.894;2023-09-12T04:24:33;17.52;;;11.20;;
78443;SDS011;67739;52.986;8.894;2023-09-12T04:26:58;21.20;;;12.13;;
78443;SDS011;67739;52.986;8.894;2023-09-12T04:29:24;19.50;;;11.80;;
78443;SDS011;67739;52.986;8.894;2023-09-12T04:31:49;20.85;;;12.48;;
78443;SDS011;67739;52.986;8.894;2023-09-12T04:34:15;20.75;;;11.00;;
78443;SDS011;67739;52.986;8.894;2023-09-12T04:36:40;20.30;;;11.18;;
78443;SDS011;67739;52.986;8.894;2023-09-12T04:39:06;21.23;;;11.70;;
78443;SDS011;67739;52.986;8.894;2023-09-12T04:41:31;22.30;;;12.98;;
78443;SDS011;67739;52.986;8.894;2023-09-12T04:43:56;21.45;;;11.60;;
78443;SDS011;67739;52.986;8.894;2023-09-12T04:46:23;19.20;;;11.57;;
78443;SDS011;67739;52.986;8.894;2023-09-12T04:48:49;18.30;;;11.35;;
78443;SDS011;67739;52.986;8.894;2023-09-12T04:51:14;20.08;;;10.98;;
78443;SDS011;67739;52.986;8.894;2023-09-12T04:53:39;17.52;;;10.38;;
78443;SDS011;67739;52.986;8.894;2023-09-12T04:56:05;19.55;;;12.15;;
78443;SDS011;67739;52.986;8.894;2023-09-12T04:58:31;19.85;;;10.10;;
78443;SDS011;67739;52.986;8.894;2023-09-12T05:00:57;21.27;;;11.65;;
78443;SDS011;67739;52.986;8.894;2023-09-12T05:03:22;19.17;;;11.23;;
78443;SDS011;67739;52.986;8.894;2023-09-12T05:05:48;16.73;;;9.93;;
78443;SDS011;67739;52.986;8.894;2023-09-12T05:08:15;20.58;;;10.70;;
78443;SDS011;67739;52.986;8.894;2023-09-12T05:10:40;17.27;;;9.75;;
78443;SDS011;67739;52.986;8.894;2023-09-12T05:13:06;18.63;;;10.90;;
78443;SDS011;67739;52.986;8.894;2023-09-12T05:15:31;19.73;;;11.35;;
78443;SDS011;67739;52.986;8.894;2023-09-12T05:17:56;18.17;;;11.27;;
78443;SDS011;67739;52.986;8.894;2023-09-12T05:20:22;21.48;;;11.93;;
78443;SDS011;67739;52.986;8.894;2023-09-12T05:22:47;18.35;;;11.32;;
78443;SDS011;67739;52.986;8.894;2023-09-12T05:25:13;19.15;;;11.85;;
78443;SDS011;67739;52.986;8.894;2023-09-12T05:27:38;17.80;;;10.32;;
78443;SDS011;67739;52.986;8.894;2023-09-12T05:30:04;16.85;;;11.25;;
78443;SDS011;67739;52.986;8.894;2023-09-12T05:32:29;20.35;;;10.63;;
78443;SDS011;67739;52.986;8.894;2023-09-12T05:34:55;19.13;;;11.02;;
78443;SDS011;67739;52.986;8.894;2023-09-12T05:37:21;19.95;;;11.15;;
78443;SDS011;67739;52.986;8.894;2023-09-12T05:39:46;18.83;;;10.63;;
78443;SDS011;67739;52.986;8.894;2023-09-12T05:42:12;17.20;;;10.55;;
78443;SDS011;67739;52.986;8.894;2023-09-12T05:44:45;16.60;;;9.52;;
78443;SDS011;67739;52.986;8.894;2023-09-12T05:47:11;18.48;;;10.52;;
78443;SDS011;67739;52.986;8.894;2023-09-12T05:49:36;16.00;;;9.15;;
78443;SDS011;67739;52.986;8.894;2023-09-12T05:52:02;17.30;;;9.93;;
78443;SDS011;67739;52.986;8.894;2023-09-12T05:54:27;17.27;;;9.48;;
78443;SDS011;67739;52.986;8.894;2023-09-12T05:56:53;17.83;;;9.57;;
78443;SDS011;67739;52.986;8.894;2023-09-12T05:59:18;15.50;;;8.73;;
78443;SDS011;67739;52.986;8.894;2023-09-12T06:01:44;16.65;;;10.10;;
78443;SDS011;67739;52.986;8.894;2023-09-12T06:04:10;17.65;;;9.55;;
78443;SDS011;67739;52.986;8.894;2023-09-12T06:06:35;15.38;;;8.50;;
78443;SDS011;67739;52.986;8.894;2023-09-12T06:09:00;18.33;;;9.57;;
78443;SDS011;67739;52.986;8.894;2023-09-12T06:11:26;17.92;;;9.98;;
78443;SDS011;67739;52.986;8.894;2023-09-12T06:13:51;15.27;;;8.88;;
78443;SDS011;67739;52.986;8.894;2023-09-12T06:16:16;16.40;;;8.57;;
78443;SDS011;67739;52.986;8.894;2023-09-12T06:18:42;16.52;;;10.05;;
78443;SDS011;67739;52.986;8.894;2023-09-12T06:21:07;19.70;;;11.20;;
78443;SDS011;67739;52.986;8.894;2023-09-12T06:23:33;17.30;;;10.98;;
78443;SDS011;67739;52.986;8.894;2023-09-12T06:25:59;19.20;;;11.88;;
78443;SDS011;67739;52.986;8.894;2023-09-12T06:28:28;19.33;;;11.38;;
78443;SDS011;67739;52.986;8.894;2023-09-12T06:30:55;16.48;;;10.18;;
78443;SDS011;67739;52.986;8.894;2023-09-12T06:33:22;21.23;;;12.10;;
78443;SDS011;67739;52.986;8.894;2023-09-12T06:35:48;18.65;;;11.55;;
78443;SDS011;67739;52.986;8.894;2023-09-12T06:38:17;18.42;;;10.70;;
78443;SDS011;67739;52.986;8.894;2023-09-12T06:40:43;21.27;;;10.85;;
78443;SDS011;67739;52.986;8.894;2023-09-12T06:43:09;19.10;;;11.32;;
78443;SDS011;67739;52.986;8.894;2023-09-12T06:45:34;22.63;;;10.65;;
78443;SDS011;67739;52.986;8.894;2023-09-12T06:48:02;19.25;;;10.82;;
78443;SDS011;67739;52.986;8.894;2023-09-12T06:50:28;19.10;;;10.90;;
78443;SDS011;67739;52.986;8.894;2023-09-12T06:52:54;16.85;;;9.93;;
78443;SDS011;67739;52.986;8.894;2023-09-12T06:55:19;18.90;;;10.75;;
78443;SDS011;67739;52.986;8.894;2023-09-12T06:57:44;18.25;;;10.07;;
78443;SDS011;67739;52.986;8.894;2023-09-12T07:00:11;18.67;;;9.82;;
78443;SDS011;67739;52.986;8.894;2023-09-12T07:02:37;18.65;;;10.90;;
78443;SDS011;67739;52.986;8.894;2023-09-12T07:05:03;21.08;;;10.52;;
78443;SDS011;67739;52.986;8.894;2023-09-12T07:07:29;20.17;;;13.25;;
78443;SDS011;67739;52.986;8.894;2023-09-12T07:09:54;21.85;;;12.25;;
78443;SDS011;67739;52.986;8.894;2023-09-12T07:12:19;22.65;;;12.13;;
78443;SDS011;67739;52.986;8.894;2023-09-12T07:14:45;23.17;;;13.45;;
78443;SDS011;67739;52.986;8.894;2023-09-12T07:17:10;20.98;;;12.00;;
78443;SDS011;67739;52.986;8.894;2023-09-12T07:19:35;18.40;;;10.75;;
78443;SDS011;67739;52.986;8.894;2023-09-12T07:22:01;23.73;;;12.55;;
78443;SDS011;67739;52.986;8.894;2023-09-12T07:24:26;26.38;;;12.93;;
78443;SDS011;67739;52.986;8.894;2023-09-12T07:26:52;24.08;;;14.52;;
78443;SDS011;67739;52.986;8.894;2023-09-12T07:29:18;22.42;;;12.27;;
78443;SDS011;67739;52.986;8.894;2023-09-12T07:31:44;20.60;;;10.80;;
78443;SDS011;67739;52.986;8.894;2023-09-12T07:34:09;19.92;;;11.52;;
78443;SDS011;67739;52.986;8.894;2023-09-12T07:36:35;21.70;;;12.30;;
78443;SDS011;67739;52.986;8.894;2023-09-12T07:39:01;19.33;;;11.52;;
78443;SDS011;67739;52.986;8.894;2023-09-12T07:41:27;18.77;;;11.23;;
78443;SDS011;67739;52.986;8.894;2023-09-12T07:43:53;23.67;;;12.32;;
78443;SDS011;67739;52.986;8.894;2023-09-12T07:46:18;20.40;;;11.85;;
78443;SDS011;67739;52.986;8.894;2023-09-12T07:48:43;23.25;;;11.95;;
78443;SDS011;67739;52.986;8.894;2023-09-12T07:51:15;20.40;;;10.25;;
78443;SDS011;67739;52.986;8.894;2023-09-12T07:53:42;24.17;;;12.60;;
78443;SDS011;67739;52.986;8.894;2023-09-12T07:56:08;20.08;;;11.73;;
78443;SDS011;67739;52.986;8.894;2023-09-12T07:58:35;20.83;;;11.52;;
78443;SDS011;67739;52.986;8.894;2023-09-12T08:01:04;22.20;;;12.90;;
78443;SDS011;67739;52.986;8.894;2023-09-12T08:03:36;20.17;;;12.90;;
78443;SDS011;67739;52.986;8.894;2023-09-12T08:06:03;20.83;;;12.45;;
78443;SDS011;67739;52.986;8.894;2023-09-12T08:08:29;24.83;;;13.43;;
78443;SDS011;67739;52.986;8.894;2023-09-12T08:10:55;17.15;;;10.48;;
78443;SDS011;67739;52.986;8.894;2023-09-12T08:13:22;19.92;;;10.70;;
78443;SDS011;67739;52.986;8.894;2023-09-12T08:15:47;20.33;;;11.25;;
78443;SDS011;67739;52.986;8.894;2023-09-12T08:18:12;22.80;;;12.70;;
78443;SDS011;67739;52.986;8.894;2023-09-12T08:20:38;17.95;;;11.25;;
78443;SDS011;67739;52.986;8.894;2023-09-12T08:23:03;20.00;;;10.60;;
78443;SDS011;67739;52.986;8.894;2023-09-12T08:25:29;18.25;;;10.82;;
78443;SDS011;67739;52.986;8.894;2023-09-12T08:27:54;21.45;;;11.48;;
78443;SDS011;67739;52.986;8.894;2023-09-12T08:30:19;20.48;;;10.77;;
78443;SDS011;67739;52.986;8.894;2023-09-12T08:32:45;19.23;;;10.43;;
78443;SDS011;67739;52.986;8.894;2023-09-12T08:35:10;19.23;;;10.93;;
78443;SDS011;67739;52.986;8.894;2023-09-12T08:37:40;16.35;;;10.48;;
78443;SDS011;67739;52.986;8.894;2023-09-12T08:40:07;20.48;;;10.63;;
78443;SDS011;67739;52.986;8.894;2023-09-12T08:42:36;18.00;;;11.98;;
78443;SDS011;67739;52.986;8.894;2023-09-12T08:45:06;18.73;;;10.70;;
78443;SDS011;67739;52.986;8.894;2023-09-12T08:47:43;18.77;;;11.02;;
78443;SDS011;67739;52.986;8.894;2023-09-12T08:50:15;20.13;;;9.55;;
78443;SDS011;67739;52.986;8.894;2023-09-12T08:52:42;17.15;;;10.23;;
78443;SDS011;67739;52.986;8.894;2023-09-12T08:55:09;18.33;;;10.32;;
78443;SDS011;67739;52.986;8.894;2023-09-12T08:57:36;17.92;;;10.02;;
78443;SDS011;67739;52.986;8.894;2023-09-12T09:00:04;17.83;;;10.30;;
78443;SDS011;67739;52.986;8.894;2023-09-12T09:02:31;17.40;;;9.40;;
78443;SDS011;67739;52.986;8.894;2023-09-12T09:04:58;17.10;;;10.15;;
78443;SDS011;67739;52.986;8.894;2023-09-12T09:07:26;14.35;;;8.98;;
78443;SDS011;67739;52.986;8.894;2023-09-12T09:09:53;16.20;;;8.85;;
78443;SDS011;67739;52.986;8.894;2023-09-12T09:12:19;17.20;;;9.07;;
78443;SDS011;67739;52.986;8.894;2023-09-12T09:14:44;16.67;;;8.95;;
78443;SDS011;67739;52.986;8.894;2023-09-12T09:17:10;16.65;;;9.30;;
78443;SDS011;67739;52.986;8.894;2023-09-12T09:19:42;18.25;;;9.68;;
78443;SDS011;67739;52.986;8.894;2023-09-12T09:22:09;16.88;;;9.63;;
78443;SDS011;67739;52.986;8.894;2023-09-12T09:24:34;15.13;;;9.20;;
78443;SDS011;67739;52.986;8.894;2023-09-12T09:26:59;18.80;;;10.00;;
78443;SDS011;67739;52.986;8.894;2023-09-12T09:29:26;15.85;;;8.50;;
78443;SDS011;67739;52.986;8.894;2023-09-12T09:31:56;17.92;;;9.40;;
78443;SDS011;67739;52.986;8.894;2023-09-12T09:34:23;16.42;;;9.68;;
78443;SDS011;67739;52.986;8.894;2023-09-12T09:36:52;15.23;;;8.98;;
78443;SDS011;67739;52.986;8.894;2023-09-12T09:39:28;14.77;;;8.38;;
78443;SDS011;67739;52.986;8.894;2023-09-12T09:41:56;15.32;;;7.57;;
78443;SDS011;67739;52.986;8.894;2023-09-12T09:44:23;15.38;;;9.88;;
78443;SDS011;67739;52.986;8.894;2023-09-12T09:46:53;14.05;;;6.60;;
78443;SDS011;67739;52.986;8.894;2023-09-12T09:49:20;13.82;;;7.40;;
78443;SDS011;67739;52.986;8.894;2023-09-12T09:51:46;13.43;;;6.93;;
78443;SDS011;67739;52.986;8.894;2023-09-12T09:54:12;15.48;;;8.18;;
78443;SDS011;67739;52.986;8.894;2023-09-12T09:56:53;13.93;;;7.30;;
78443;SDS011;67739;52.986;8.894;2023-09-12T09:59:23;13.23;;;7.05;;
78443;SDS011;67739;52.986;8.894;2023-09-12T10:01:50;17.38;;;8.65;;
78443;SDS011;67739;52.986;8.894;2023-09-12T10:04:20;14.20;;;8.38;;
78443;SDS011;67739;52.986;8.894;2023-09-12T10:06:46;14.35;;;8.23;;
78443;SDS011;67739;52.986;8.894;2023-09-12T10:09:12;12.52;;;6.40;;
78443;SDS011;67739;52.986;8.894;2023-09-12T10:11:39;13.10;;;7.78;;
78443;SDS011;67739;52.986;8.894;2023-09-12T10:14:06;12.98;;;6.60;;
78443;SDS011;67739;52.986;8.894;2023-09-12T10:16:33;13.10;;;6.82;;
78443;SDS011;67739;52.986;8.894;2023-09-12T10:22:06;12.70;;;6.00;;
78443;SDS011;67739;52.986;8.894;2023-09-12T10:24:36;12.52;;;6.70;;
78443;SDS011;67739;52.986;8.894;2023-09-12T10:27:04;13.27;;;7.40;;
78443;SDS011;67739;52.986;8.894;2023-09-12T10:29:31;10.93;;;6.05;;
78443;SDS011;67739;52.986;8.894;2023-09-12T10:31:57;13.45;;;6.80;;
78443;SDS011;67739;52.986;8.894;2023-09-12T10:34:22;11.98;;;6.45;;
78443;SDS011;67739;52.986;8.894;2023-09-12T10:36:51;11.43;;;6.60;;
78443;SDS011;67739;52.986;8.894;2023-09-12T10:39:20;13.32;;;6.82;;
78443;SDS011;67739;52.986;8.894;2023-09-12T10:41:47;11.27;;;6.10;;
78443;SDS011;67739;52.986;8.894;2023-09-12T10:44:17;11.77;;;6.95;;
78443;SDS011;67739;52.986;8.894;2023-09-12T10:46:43;12.40;;;5.93;;
78443;SDS011;67739;52.986;8.894;2023-09-12T10:49:11;13.35;;;6.57;;
78443;SDS011;67739;52.986;8.894;2023-09-12T10:51:38;12.30;;;6.75;;
78443;SDS011;67739;52.986;8.894;2023-09-12T10:54:07;13.75;;;6.70;;
78443;SDS011;67739;52.986;8.894;2023-09-12T10:56:34;11.80;;;6.43;;
78443;SDS011;67739;52.986;8.894;2023-09-12T11:01:50;12.05;;;6.10;;
78443;SDS011;67739;52.986;8.894;2023-09-12T11:06:44;14.00;;;6.70;;
78443;SDS011;67739;52.986;8.894;2023-09-12T11:09:25;12.57;;;6.03;;
78443;SDS011;67739;52.986;8.894;2023-09-12T11:11:56;11.18;;;5.47;;
78443;SDS011;67739;52.986;8.894;2023-09-12T11:14:21;13.25;;;5.90;;
78443;SDS011;67739;52.986;8.894;2023-09-12T11:19:45;13.18;;;7.68;;
78443;SDS011;67739;52.986;8.894;2023-09-12T11:24:56;14.68;;;7.60;;
78443;SDS011;67739;52.986;8.894;2023-09-12T11:27:25;16.30;;;8.07;;
78443;SDS011;67739;52.986;8.894;2023-09-12T11:30:09;10.90;;;5.88;;
78443;SDS011;67739;52.986;8.894;2023-09-12T11:32:36;14.57;;;7.45;;
78443;SDS011;67739;52.986;8.894;2023-09-12T11:35:05;11.70;;;6.35;;
78443;SDS011;67739;52.986;8.894;2023-09-12T11:37:32;11.75;;;6.47;;
78443;SDS011;67739;52.986;8.894;2023-09-12T11:39:58;11.07;;;5.60;;
78443;SDS011;67739;52.986;8.894;2023-09-12T11:42:24;12.68;;;6.50;;
78443;SDS011;67739;52.986;8.894;2023-09-12T11:44:52;13.30;;;7.45;;
78443;SDS011;67739;52.986;8.894;2023-09-12T11:47:18;13.07;;;7.35;;
78443;SDS011;67739;52.986;8.894;2023-09-12T11:49:45;13.50;;;7.63;;
78443;SDS011;67739;52.986;8.894;2023-09-12T11:52:11;13.98;;;6.32;;
78443;SDS011;67739;52.986;8.894;2023-09-12T11:54:44;12.20;;;7.32;;
78443;SDS011;67739;52.986;8.894;2023-09-12T11:57:11;11.75;;;6.57;;
78443;SDS011;67739;52.986;8.894;2023-09-12T11:59:38;12.13;;;7.05;;
78443;SDS011;67739;52.986;8.894;2023-09-12T12:02:07;12.30;;;6.72;;
78443;SDS011;67739;52.986;8.894;2023-09-12T12:04:34;10.77;;;6.57;;
78443;SDS011;67739;52.986;8.894;2023-09-12T12:06:59;15.45;;;7.35;;
78443;SDS011;67739;52.986;8.894;2023-09-12T12:09:26;14.90;;;6.82;;
78443;SDS011;67739;52.986;8.894;2023-09-12T12:11:52;11.55;;;6.60;;
78443;SDS011;67739;52.986;8.894;2023-09-12T12:14:17;14.02;;;8.68;;
78443;SDS011;67739;52.986;8.894;2023-09-12T12:16:44;16.90;;;7.40;;
78443;SDS011;67739;52.986;8.894;2023-09-12T12:19:12;13.80;;;7.50;;
78443;SDS011;67739;52.986;8.894;2023-09-12T12:21:39;13.98;;;7.35;;
78443;SDS011;67739;52.986;8.894;2023-09-12T12:24:06;13.02;;;7.85;;
78443;SDS011;67739;52.986;8.894;2023-09-12T12:26:33;12.68;;;7.90;;
78443;SDS011;67739;52.986;8.894;2023-09-12T12:29:04;13.63;;;7.75;;
78443;SDS011;67739;52.986;8.894;2023-09-12T12:31:29;13.80;;;7.35;;
78443;SDS011;67739;52.986;8.894;2023-09-12T12:33:56;12.00;;;7.28;;
78443;SDS011;67739;52.986;8.894;2023-09-12T12:36:22;11.27;;;6.30;;
78443;SDS011;67739;52.986;8.894;2023-09-12T12:38:48;12.68;;;5.95;;
78443;SDS011;67739;52.986;8.894;2023-09-12T12:41:22;15.48;;;6.88;;
78443;SDS011;67739;52.986;8.894;2023-09-12T12:43:52;12.60;;;7.28;;
78443;SDS011;67739;52.986;8.894;2023-09-12T12:46:23;11.32;;;5.68;;
78443;SDS011;67739;52.986;8.894;2023-09-12T12:48:49;13.57;;;6.35;;
78443;SDS011;67739;52.986;8.894;2023-09-12T12:51:16;11.15;;;5.47;;
78443;SDS011;67739;52.986;8.894;2023-09-12T12:53:42;11.30;;;5.95;;
78443;SDS011;67739;52.986;8.894;2023-09-12T12:56:13;14.32;;;6.97;;
78443;SDS011;67739;52.986;8.894;2023-09-12T12:58:44;13.05;;;6.60;;
78443;SDS011;67739;52.986;8.894;2023-09-12T13:01:11;13.75;;;6.10;;
78443;SDS011;67739;52.986;8.894;2023-09-12T13:03:36;10.95;;;5.85;;
78443;SDS011;67739;52.986;8.894;2023-09-12T13:06:01;11.80;;;6.18;;
78443;SDS011;67739;52.986;8.894;2023-09-12T13:08:27;10.82;;;5.60;;
78443;SDS011;67739;52.986;8.894;2023-09-12T13:10:52;12.68;;;6.63;;
78443;SDS011;67739;52.986;8.894;2023-09-12T13:13:17;14.98;;;7.10;;
78443;SDS011;67739;52.986;8.894;2023-09-12T13:15:42;12.00;;;6.13;;
78443;SDS011;67739;52.986;8.894;2023-09-12T13:18:08;11.85;;;5.63;;
78443;SDS011;67739;52.986;8.894;2023-09-12T13:20:33;11.13;;;6.00;;
78443;SDS011;67739;52.986;8.894;2023-09-12T13:22:58;11.50;;;5.72;;
78443;SDS011;67739;52.986;8.894;2023-09-12T13:25:24;11.48;;;6.28;;
78443;SDS011;67739;52.986;8.894;2023-09-12T13:27:49;11.52;;;5.85;;
78443;SDS011;67739;52.986;8.894;2023-09-12T13:30:14;13.00;;;4.93;;
78443;SDS011;67739;52.986;8.894;2023-09-12T13:32:40;13.30;;;6.38;;
78443;SDS011;67739;52.986;8.894;2023-09-12T13:35:05;12.98;;;5.10;;
78443;SDS011;67739;52.986;8.894;2023-09-12T13:37:32;11.48;;;6.25;;
78443;SDS011;67739;52.986;8.894;2023-09-12T13:39:58;9.38;;;5.05;;
78443;SDS011;67739;52.986;8.894;2023-09-12T13:42:23;11.18;;;5.50;;
78443;SDS011;67739;52.986;8.894;2023-09-12T13:44:49;9.48;;;5.03;;
78443;SDS011;67739;52.986;8.894;2023-09-12T13:47:15;12.73;;;6.55;;
78443;SDS011;67739;52.986;8.894;2023-09-12T13:49:50;10.90;;;5.22;;
78443;SDS011;67739;52.986;8.894;2023-09-12T13:52:17;9.73;;;4.97;;
78443;SDS011;67739;52.986;8.894;2023-09-12T13:54:44;8.77;;;4.63;;
78443;SDS011;67739;52.986;8.894;2023-09-12T13:57:09;10.10;;;4.47;;
78443;SDS011;67739;52.986;8.894;2023-09-12T13:59:34;10.90;;;5.03;;
78443;SDS011;67739;52.986;8.894;2023-09-12T14:02:00;10.68;;;4.85;;
78443;SDS011;67739;52.986;8.894;2023-09-12T14:04:25;9.07;;;4.75;;
78443;SDS011;67739;52.986;8.894;2023-09-12T14:06:50;9.10;;;4.47;;
78443;SDS011;67739;52.986;8.894;2023-09-12T14:09:16;10.35;;;4.47;;
78443;SDS011;67739;52.986;8.894;2023-09-12T14:11:41;9.07;;;4.90;;
78443;SDS011;67739;52.986;8.894;2023-09-12T14:14:08;7.63;;;4.30;;
78443;SDS011;67739;52.986;8.894;2023-09-12T14:16:33;11.00;;;4.47;;
78443;SDS011;67739;52.986;8.894;2023-09-12T14:18:58;9.48;;;4.55;;
78443;SDS011;67739;52.986;8.894;2023-09-12T14:21:24;8.60;;;4.20;;
78443;SDS011;67739;52.986;8.894;2023-09-12T14:23:49;8.57;;;3.75;;
78443;SDS011;67739;52.986;8.894;2023-09-12T14:26:14;10.85;;;5.25;;
78443;SDS011;67739;52.986;8.894;2023-09-12T14:28:40;8.77;;;3.95;;
78443;SDS011;67739;52.986;8.894;2023-09-12T14:31:05;9.27;;;4.22;;
78443;SDS011;67739;52.986;8.894;2023-09-12T14:33:38;8.60;;;3.78;;
78443;SDS011;67739;52.986;8.894;2023-09-12T14:36:03;10.45;;;4.57;;
78443;SDS011;67739;52.986;8.894;2023-09-12T14:38:29;8.52;;;4.35;;
78443;SDS011;67739;52.986;8.894;2023-09-12T14:40:54;7.55;;;3.72;;
78443;SDS011;67739;52.986;8.894;2023-09-12T14:43:20;8.95;;;4.03;;
78443;SDS011;67739;52.986;8.894;2023-09-12T14:45:46;8.13;;;3.92;;